Time;durP1;ratioP1;P1;durP2;ratioP2;P2;SDS_P1;SDS_P2;PMS_P1;PMS_P2;Temp;Humidity;BMP_temperature;BMP_pressure;BME280_temperature;BME280_humidity;BME280_pressure;Samples;Min_cycle;Max_cycle;Signal;HPM_P1;HPM_P2
2021/08/27 00:01:42;;;;;;;10.20;4.35;;;14.30;99.90;;;14.20;90.10;101610.38;4202464;28;20032;-65
2021/08/27 00:03:43;;;;;;;6.40;3.60;;;14.30;99.90;;;14.15;89.59;101610.03;4170643;28;20033;-65
2021/08/27 00:05:43;;;;;;;8.25;4.22;;;14.30;99.90;;;14.12;89.65;101605.03;4170399;28;20057;-65
2021/08/27 00:07:44;;;;;;;7.95;4.32;;;14.30;99.90;;;14.17;87.81;101601.88;4170238;28;20029;-65
2021/08/27 00:09:45;;;;;;;7.47;4.40;;;14.20;99.90;;;14.17;87.98;101612.50;4202335;28;20025;-65
2021/08/27 00:11:46;;;;;;;11.38;3.70;;;14.20;99.90;;;14.17;87.96;101613.34;4170308;28;20064;-65
2021/08/27 00:13:47;;;;;;;5.18;3.47;;;14.20;99.90;;;14.20;88.89;101610.38;4170110;28;20022;-65
2021/08/27 00:15:48;;;;;;;7.00;3.97;;;14.20;99.90;;;14.12;87.83;101612.16;4170191;28;20032;-65
2021/08/27 00:17:49;;;;;;;7.25;4.00;;;14.20;99.90;;;14.01;88.08;101613.22;4170352;28;20108;-65
2021/08/27 00:19:50;;;;;;;7.65;3.05;;;14.20;99.90;;;13.93;88.66;101610.53;4170335;28;20036;-65
2021/08/27 00:21:51;;;;;;;10.00;4.10;;;14.10;99.90;;;14.00;87.89;101605.44;4170199;28;20026;-65
2021/08/27 00:23:52;;;;;;;9.65;4.20;;;14.10;99.90;;;14.02;87.31;101614.91;4170069;28;20477;-65
2021/08/27 00:25:53;;;;;;;6.47;3.67;;;14.10;99.90;;;13.92;88.41;101608.06;4169635;28;20025;-65
2021/08/27 00:27:54;;;;;;;8.48;4.30;;;14.00;99.90;;;14.00;87.59;101606.28;4169553;28;20493;-65
2021/08/27 00:29:55;;;;;;;10.00;3.78;;;14.10;99.90;;;13.98;88.26;101615.41;4170015;28;20097;-65
2021/08/27 00:31:55;;;;;;;9.75;3.92;;;14.00;99.90;;;13.89;87.73;101603.06;4170012;28;20113;-65
2021/08/27 00:33:57;;;;;;;8.10;3.80;;;14.00;99.90;;;13.86;87.54;101596.22;4170113;28;20512;-65
2021/08/27 00:35:58;;;;;;;5.35;3.47;;;13.90;99.90;;;13.87;87.58;101595.25;4170082;28;20025;-65
2021/08/27 00:37:59;;;;;;;6.38;3.30;;;14.00;99.90;;;13.83;88.37;101601.84;4170020;28;20104;-65
2021/08/27 00:40:01;;;;;;;5.50;3.92;;;13.90;99.90;;;13.75;88.45;101592.03;4169955;28;20111;-65
2021/08/27 00:42:03;;;;;;;5.20;3.72;;;13.90;99.90;;;13.77;88.20;101594.50;4201881;28;20440;-65
2021/08/27 00:44:04;;;;;;;6.35;3.53;;;13.80;99.90;;;13.77;88.66;101582.09;4169947;28;20021;-65
2021/08/27 00:46:05;;;;;;;8.30;3.75;;;13.80;99.90;;;13.59;89.05;101578.66;4169936;28;20536;-65
2021/08/27 00:48:08;;;;;;;7.47;3.53;;;13.80;99.90;;;13.57;89.71;101593.88;4201628;28;20035;-65
2021/08/27 00:50:10;;;;;;;6.57;3.22;;;13.70;99.90;;;13.62;89.71;101596.09;4169822;28;20064;-65
2021/08/27 00:52:11;;;;;;;9.05;4.00;;;13.70;99.90;;;13.70;88.73;101596.97;4169825;28;20149;-65
2021/08/27 00:54:14;;;;;;;6.85;3.55;;;13.70;99.90;;;13.68;88.56;101584.84;4169719;28;20451;-65
2021/08/27 00:56:15;;;;;;;6.15;3.50;;;13.70;99.90;;;13.75;87.62;101593.84;4168426;28;20017;-65
2021/08/27 00:58:16;;;;;;;6.20;3.58;;;13.70;99.90;;;13.76;87.88;101595.53;4154893;28;20147;-65
2021/08/27 01:00:17;;;;;;;6.93;3.40;;;13.70;99.90;;;13.70;88.33;101593.50;4169796;28;20583;-65
2021/08/27 01:02:18;;;;;;;5.45;3.38;;;13.70;99.90;;;13.69;87.94;101591.81;4169748;28;20104;-65
2021/08/27 01:04:19;;;;;;;9.52;3.78;;;13.70;99.90;;;13.61;87.15;101589.97;4169530;28;20038;-65
2021/08/27 01:06:40;;;;;;;5.15;2.97;;;13.70;99.90;;;13.51;88.16;101577.78;4169757;28;20128;-65
2021/08/27 01:09:24;;;;;;;8.13;3.67;;;13.60;99.90;;;13.55;88.74;101581.78;4169484;28;20025;-67
2021/08/27 01:11:41;;;;;;;6.35;3.20;;;13.60;99.90;;;13.70;87.36;101582.88;4169538;28;20048;-65
2021/08/27 01:14:07;;;;;;;6.70;3.33;;;13.60;99.90;;;13.67;86.91;101584.03;4168208;28;20402;-65
2021/08/27 01:16:26;;;;;;;6.90;3.47;;;13.60;99.90;;;13.52;88.35;101579.44;4168604;28;20064;-65
2021/08/27 01:18:41;;;;;;;7.10;3.47;;;13.60;99.90;;;13.50;87.12;101582.22;4168318;28;20025;-65
2021/08/27 01:21:06;;;;;;;6.15;3.50;;;13.60;99.90;;;13.61;86.96;101589.13;4167951;28;20026;-65
2021/08/27 01:23:32;;;;;;;6.18;2.75;;;13.60;99.90;;;13.72;86.82;101586.19;4169126;28;20033;-65
2021/08/27 01:25:38;;;;;;;5.40;3.40;;;13.60;99.90;;;13.69;87.18;101586.50;4169096;28;20045;-65
2021/08/27 01:27:41;;;;;;;5.75;3.63;;;13.60;99.90;;;13.65;86.75;101585.19;4169068;28;20033;-65
2021/08/27 01:29:54;;;;;;;5.93;4.07;;;13.60;99.90;;;13.53;87.35;101583.78;4168069;28;20623;-65
2021/08/27 01:32:08;;;;;;;8.73;3.47;;;13.60;99.90;;;13.44;88.00;101576.75;4168064;28;20473;-65
2021/08/27 01:34:37;;;;;;;6.50;2.80;;;13.50;99.90;;;13.22;89.15;101572.75;4168070;28;20029;-65
2021/08/27 01:36:40;;;;;;;5.15;2.80;;;13.40;99.90;;;13.14;90.02;101573.50;4169071;28;20025;-65
2021/08/27 01:38:43;;;;;;;11.20;3.97;;;13.40;99.90;;;13.28;89.59;101586.22;4151182;28;20432;-65
2021/08/27 01:40:52;;;;;;;8.82;4.00;;;13.30;99.90;;;13.18;89.13;101576.69;4167870;28;20552;-65
2021/08/27 01:42:54;;;;;;;7.80;3.22;;;13.30;99.90;;;13.27;88.77;101579.25;4151423;28;20030;-65
2021/08/27 01:44:57;;;;;;;8.57;3.70;;;13.30;99.90;;;13.37;88.03;101580.97;4167657;28;20127;-65
2021/08/27 01:47:02;;;;;;;7.68;3.40;;;13.30;99.90;;;13.20;88.83;101572.06;4167904;28;20384;-65
2021/08/27 01:49:05;;;;;;;4.03;2.78;;;13.30;99.90;;;13.13;89.52;101582.44;4167815;28;20029;-65
2021/08/27 01:51:09;;;;;;;5.10;2.97;;;13.20;99.90;;;13.21;88.79;101581.66;4168816;28;20112;-65
2021/08/27 01:53:10;;;;;;;6.15;3.20;;;13.30;99.90;;;13.11;89.92;101578.28;4168723;28;20052;-64
2021/08/27 01:55:12;;;;;;;6.47;3.40;;;13.20;99.90;;;13.10;90.59;101569.50;4168935;28;20112;-65
2021/08/27 01:57:14;;;;;;;6.55;3.65;;;13.20;99.90;;;13.08;90.35;101575.94;4183749;28;20037;-65
2021/08/27 01:59:16;;;;;;;5.15;2.95;;;13.10;99.90;;;13.09;89.77;101567.81;4184088;28;20442;-65
2021/08/27 02:01:18;;;;;;;6.75;2.90;;;13.10;99.90;;;13.11;89.50;101575.63;4183773;28;20060;-65
2021/08/27 02:03:20;;;;;;;8.15;3.40;;;13.10;99.90;;;13.10;88.99;101569.50;4184044;28;20044;-65
2021/08/27 02:05:23;;;;;;;6.10;2.92;;;13.10;99.90;;;13.22;88.25;101578.88;4184083;28;20428;-65
2021/08/27 02:07:24;;;;;;;7.78;3.00;;;13.10;99.90;;;13.12;89.19;101575.47;4167221;28;20038;-65
2021/08/27 02:09:26;;;;;;;5.93;2.95;;;13.10;99.90;;;13.16;89.08;101574.19;4152121;28;20026;-65
2021/08/27 02:11:29;;;;;;;8.35;2.97;;;13.10;99.90;;;13.20;87.92;101561.47;4152316;28;20026;-65
2021/08/27 02:13:31;;;;;;;7.65;3.92;;;13.20;99.90;;;13.32;88.67;101572.66;4183379;28;20083;-65
2021/08/27 02:15:32;;;;;;;6.97;2.90;;;13.20;99.90;;;13.15;89.57;101569.03;4184151;28;20040;-65
2021/08/27 02:17:33;;;;;;;7.13;3.28;;;13.20;99.90;;;13.08;90.07;101570.66;4183683;28;20025;-65
2021/08/27 02:19:36;;;;;;;7.85;3.15;;;13.10;99.90;;;13.08;89.40;101570.66;4152286;28;20022;-65
2021/08/27 02:21:45;;;;;;;8.23;3.78;;;13.10;99.90;;;13.21;88.80;101581.66;4152388;28;20462;-65
2021/08/27 02:23:49;;;;;;;9.75;3.35;;;13.10;99.90;;;13.11;88.89;101573.00;4151114;28;20034;-65
2021/08/27 02:25:51;;;;;;;;;;;13.10;99.90;;;13.02;89.27;101572.03;4183978;28;20021;-65
2021/08/27 02:27:53;;;;;;;5.97;3.15;;;13.10;99.90;;;13.04;88.55;101580.66;4151042;28;19933;-65
2021/08/27 02:29:57;;;;;;;6.75;3.38;;;13.10;99.90;;;12.94;89.75;101579.06;4183898;28;20043;-65
2021/08/27 02:32:02;;;;;;;8.02;2.83;;;13.10;99.90;;;12.99;89.47;101577.63;4152002;28;20037;-65
2021/08/27 02:34:03;;;;;;;7.03;3.67;;;13.10;99.90;;;12.94;89.74;101579.91;4183803;28;20033;-65
2021/08/27 02:36:07;;;;;;;6.97;3.28;;;13.10;99.90;;;12.87;90.42;101562.97;4183930;28;20094;-65
2021/08/27 02:38:17;;;;;;;6.07;3.10;;;13.00;99.90;;;13.26;87.75;101582.06;4183545;28;20064;-65
2021/08/27 02:40:18;;;;;;;7.40;2.80;;;13.10;99.90;;;13.11;88.49;101579.09;4182684;28;20404;-65
2021/08/27 02:42:20;;;;;;;6.32;3.70;;;13.10;99.90;;;13.11;88.28;101587.03;4183522;28;20025;-65
2021/08/27 02:44:21;;;;;;;5.18;2.90;;;13.10;99.90;;;12.97;90.06;101584.06;4183474;28;20067;-65
2021/08/27 02:46:22;;;;;;;9.45;3.75;;;13.10;99.90;;;12.96;90.29;101588.53;4152065;28;20040;-65
2021/08/27 02:48:23;;;;;;;6.45;3.13;;;13.10;99.90;;;12.77;90.86;101572.78;4151898;28;20029;-65
2021/08/27 02:50:25;;;;;;;7.55;3.10;;;13.00;99.90;;;13.01;89.61;101594.22;4185783;28;20033;-65
2021/08/27 02:53:03;;;;;;;5.85;3.10;;;13.00;99.90;;;13.02;89.74;101579.16;4154156;28;20531;-65
2021/08/27 02:55:27;;;;;;;7.85;3.03;;;13.00;99.90;;;13.04;89.45;101579.84;4181255;28;20026;-65
2021/08/27 02:57:32;;;;;;;8.50;3.13;;;13.00;99.90;;;12.94;89.93;101577.25;4164976;28;20565;-65
2021/08/27 02:59:36;;;;;;;5.90;3.33;;;13.00;99.90;;;12.98;89.28;101580.44;4171574;28;20112;-65
2021/08/27 03:01:48;;;;;;;7.22;3.25;;;13.00;99.90;;;13.03;89.31;101573.69;4203409;28;20031;-65
2021/08/27 03:04:03;;;;;;;4.40;2.78;;;13.10;99.90;;;13.03;89.53;101581.66;4171375;28;20108;-65
2021/08/27 03:06:23;;;;;;;5.10;2.83;;;13.00;99.90;;;13.01;89.82;101575.69;4171374;28;20026;-65
2021/08/27 03:08:26;;;;;;;5.05;3.03;;;13.00;99.90;;;12.88;90.80;101583.16;4202660;28;20150;-65
2021/08/27 03:10:45;;;;;;;7.72;2.85;;;13.00;99.90;;;12.88;90.95;101584.97;4171361;28;20512;-65
2021/08/27 03:13:30;;;;;;;5.65;3.10;;;13.00;99.90;;;12.93;90.68;101591.47;4170980;28;20025;-65
2021/08/27 03:16:00;;;;;;;4.10;2.90;;;13.00;99.90;;;12.80;91.23;101583.06;4170909;28;20400;-65
2021/08/27 03:18:38;;;;;;;9.80;4.05;;;12.90;99.90;;;12.94;89.94;101590.50;4201150;28;20100;-65
2021/08/27 03:21:05;;;;;;;5.72;3.30;;;12.80;99.90;;;12.82;91.48;101581.09;4171066;28;20060;-65
2021/08/27 03:23:10;;;;;;;8.23;3.35;;;12.90;99.90;;;12.82;91.72;101590.84;4201658;28;20032;-65
2021/08/27 03:25:13;;;;;;;4.85;2.92;;;12.80;99.90;;;12.96;90.13;101588.53;4171329;28;20022;-65
2021/08/27 03:27:26;;;;;;;8.32;3.40;;;12.90;99.90;;;12.83;91.84;101585.44;4202582;28;20048;-65
2021/08/27 03:29:30;;;;;;;7.93;3.40;;;12.90;99.90;;;12.86;92.08;101597.53;4202250;28;20032;-65
2021/08/27 03:31:31;;;;;;;;;;;12.90;99.90;;;12.83;92.24;101593.38;4203400;28;20035;-65
2021/08/27 03:33:33;;;;;;;6.70;3.35;;;12.80;99.90;;;12.74;92.01;101595.09;4202993;28;19908;-65
2021/08/27 03:35:35;;;;;;;7.63;3.20;;;12.80;99.90;;;12.67;92.62;101594.03;4203009;28;20028;-65
2021/08/27 03:37:36;;;;;;;6.47;2.47;;;12.80;99.90;;;12.73;92.40;101603.19;4202894;28;20424;-65
2021/08/27 03:39:39;;;;;;;5.80;2.60;;;12.80;99.90;;;12.72;92.24;101591.75;4171046;28;20022;-65
2021/08/27 03:41:42;;;;;;;7.60;2.67;;;12.80;99.90;;;12.70;92.41;101587.59;4202666;28;20124;-64
2021/08/27 03:43:45;;;;;;;6.45;3.15;;;12.70;99.90;;;12.66;92.52;101599.47;4170823;28;20025;-65
2021/08/27 03:45:51;;;;;;;5.78;2.63;;;12.70;99.90;;;12.56;92.96;101599.53;4202762;28;20495;-65
2021/08/27 03:47:53;;;;;;;10.23;3.58;;;12.70;99.90;;;12.48;93.13;101593.31;4170786;28;20109;-65
2021/08/27 03:49:54;;;;;;;6.55;2.85;;;12.70;99.90;;;12.53;93.34;101596.34;4170609;28;20032;-65
2021/08/27 03:51:57;;;;;;;4.25;3.08;;;12.60;99.90;;;12.60;93.20;101592.13;4202662;28;20085;-65
2021/08/27 03:53:59;;;;;;;6.35;4.00;;;12.60;99.90;;;12.51;93.37;101587.72;4170911;28;20025;-65
2021/08/27 03:56:01;;;;;;;7.30;3.10;;;12.60;99.90;;;12.46;93.83;101577.56;4170648;28;20393;-65
2021/08/27 03:58:03;;;;;;;5.93;2.92;;;12.60;99.90;;;12.60;93.22;101584.19;4168986;28;20041;-65
2021/08/27 04:00:06;;;;;;;5.18;2.95;;;12.60;99.90;;;12.60;93.20;101586.84;4169460;28;20021;-65
2021/08/27 04:02:12;;;;;;;7.53;3.40;;;12.60;99.90;;;12.64;93.31;101594.31;4169354;28;20040;-65
2021/08/27 04:04:21;;;;;;;6.70;2.67;;;12.60;99.90;;;12.60;93.26;101597.44;4170621;28;20264;-65
2021/08/27 04:06:22;;;;;;;5.68;3.67;;;12.60;99.90;;;12.55;93.83;101594.38;4202203;28;20119;-65
2021/08/27 04:08:23;;;;;;;10.07;3.25;;;12.70;99.90;;;12.63;93.84;101591.84;4202418;28;20037;-65
2021/08/27 04:10:25;;;;;;;8.50;3.35;;;12.70;99.90;;;12.74;92.76;101579.22;4170385;28;20025;-65
2021/08/27 04:12:26;;;;;;;8.25;3.17;;;12.70;99.90;;;12.76;93.04;101576.41;4202126;28;20427;-65
2021/08/27 04:14:27;;;;;;;8.95;3.10;;;12.70;99.90;;;12.73;93.29;101582.84;4202172;28;20037;-65
2021/08/27 04:16:28;;;;;;;5.45;3.17;;;12.80;99.90;;;12.76;93.43;101589.66;4170453;28;20026;-65
2021/08/27 04:18:29;;;;;;;7.82;3.58;;;12.80;99.90;;;12.79;92.95;101576.09;4170488;28;20358;-65
2021/08/27 04:20:30;;;;;;;6.63;3.25;;;12.70;99.90;;;12.86;92.15;101576.34;4170134;28;20040;-65
2021/08/27 04:22:31;;;;;;;8.75;4.10;;;12.70;99.90;;;12.78;92.82;101571.81;4170128;28;20496;-65
2021/08/27 04:24:32;;;;;;;6.47;2.90;;;12.80;99.90;;;12.70;93.45;101572.53;4202251;28;20043;-65
2021/08/27 04:26:34;;;;;;;6.22;2.90;;;12.70;99.90;;;12.76;93.57;101584.34;4170275;28;20057;-64
2021/08/27 04:28:35;;;;;;;7.22;2.97;;;12.70;99.90;;;12.67;94.21;101580.78;4169967;28;20040;-65
2021/08/27 04:30:37;;;;;;;8.15;3.40;;;12.70;99.90;;;12.64;94.41;101580.25;4169919;28;20397;-65
2021/08/27 04:32:38;;;;;;;6.80;3.30;;;12.70;99.90;;;12.62;94.39;101587.50;4168835;28;20497;-64
2021/08/27 04:34:39;;;;;;;6.90;3.50;;;12.70;99.90;;;12.55;94.83;101584.63;4170052;28;20049;-64
2021/08/27 04:36:40;;;;;;;6.78;2.92;;;12.70;99.90;;;12.66;94.08;101591.53;4169935;28;20034;-64
2021/08/27 04:38:41;;;;;;;6.82;2.97;;;12.60;99.90;;;12.65;94.02;101580.13;4170023;28;20033;-65
2021/08/27 04:40:42;;;;;;;5.78;2.88;;;12.70;99.90;;;12.68;93.64;101578.97;4170010;28;20040;-65
2021/08/27 04:42:42;;;;;;;11.68;3.83;;;12.70;99.90;;;12.69;94.07;101591.25;4169737;28;20516;-64
2021/08/27 04:44:43;;;;;;;7.47;3.20;;;12.70;99.90;;;12.63;94.58;101587.34;4169882;28;20041;-64
2021/08/27 04:46:44;;;;;;;6.70;3.17;;;12.70;99.90;;;12.58;94.89;101578.19;4170065;28;20072;-64
2021/08/27 04:48:45;;;;;;;4.22;2.78;;;12.70;99.90;;;12.54;94.35;101579.50;4169873;28;20504;-65
2021/08/27 04:50:47;;;;;;;8.75;3.33;;;12.60;99.90;;;12.38;94.41;101572.19;4201674;28;20028;-65
2021/08/27 04:52:48;;;;;;;7.35;2.92;;;12.60;99.90;;;12.44;94.82;101579.53;4201638;28;20025;-65
2021/08/27 04:54:49;;;;;;;5.28;2.65;;;12.50;99.90;;;12.45;94.89;101578.56;4199982;28;20028;-65
2021/08/27 04:56:50;;;;;;;6.15;3.28;;;12.50;99.90;;;12.47;94.19;101581.88;4166305;28;20057;-65
2021/08/27 04:58:51;;;;;;;6.95;3.17;;;12.50;99.90;;;12.54;92.47;101576.84;4201417;28;20023;-65
2021/08/27 05:00:53;;;;;;;12.10;4.03;;;12.50;99.90;;;12.43;94.18;101582.31;4168315;28;20596;-65
2021/08/27 05:02:54;;;;;;;4.82;2.78;;;12.50;99.90;;;12.50;94.75;101586.88;4169335;28;20033;-65
2021/08/27 05:04:55;;;;;;;8.18;3.22;;;12.50;99.90;;;12.63;93.84;101597.13;4169672;28;20029;-65
2021/08/27 05:06:56;;;;;;;6.45;2.92;;;12.50;99.90;;;12.43;94.31;101593.75;4169643;28;20061;-65
2021/08/27 05:08:57;;;;;;;5.03;3.17;;;12.50;99.90;;;12.38;94.63;101587.22;4169380;28;20030;-65
2021/08/27 05:10:58;;;;;;;6.18;3.13;;;12.50;99.90;;;12.37;94.56;101593.47;4169312;28;20021;-64
2021/08/27 05:12:59;;;;;;;5.28;2.88;;;12.40;99.90;;;12.36;94.56;101592.69;4200820;28;20024;-64
2021/08/27 05:14:59;;;;;;;7.30;2.95;;;12.40;99.90;;;12.31;95.21;101594.06;4169341;28;20026;-64
2021/08/27 05:17:00;;;;;;;5.47;2.58;;;12.40;99.90;;;12.29;95.30;101599.53;4169003;28;20110;-65
2021/08/27 05:19:01;;;;;;;6.65;3.58;;;12.40;99.90;;;12.34;94.92;101601.72;4168781;28;20013;-65
2021/08/27 05:21:02;;;;;;;7.40;3.00;;;12.40;99.90;;;12.41;94.36;101594.88;4169338;28;20444;-65
2021/08/27 05:23:03;;;;;;;6.60;3.13;;;12.40;99.90;;;12.37;95.17;101596.13;4169301;28;20036;-65
2021/08/27 05:25:05;;;;;;;8.32;4.05;;;12.40;99.90;;;12.42;94.54;101601.84;4151679;28;20034;-65
2021/08/27 05:27:06;;;;;;;7.25;3.33;;;12.50;99.90;;;12.39;95.05;101607.44;4168932;28;20125;-65
2021/08/27 05:29:07;;;;;;;8.73;3.50;;;12.40;99.90;;;12.35;95.46;101601.59;4169269;28;20036;-65
2021/08/27 05:31:10;;;;;;;7.20;3.13;;;12.40;99.90;;;12.37;95.59;101612.00;4169169;28;20029;-65
2021/08/27 05:33:10;;;;;;;4.10;2.70;;;12.40;99.90;;;12.33;95.88;101606.19;4169289;28;20079;-65
2021/08/27 05:35:13;;;;;;;4.93;2.90;;;12.40;99.90;;;12.29;95.69;101614.56;4168971;28;20556;-65
2021/08/27 05:37:13;;;;;;;6.93;3.65;;;12.40;99.90;;;12.33;95.64;101632.66;4167911;28;20025;-65
2021/08/27 05:39:16;;;;;;;5.70;2.70;;;12.40;99.90;;;12.20;95.75;101621.56;4169298;28;20385;-65
2021/08/27 05:41:17;;;;;;;7.38;3.90;;;12.40;99.90;;;12.19;96.21;101619.88;4168967;28;20021;-66
2021/08/27 05:43:18;;;;;;;7.03;3.03;;;12.40;99.90;;;12.21;96.57;101624.03;4168713;28;20563;-65
2021/08/27 05:45:21;;;;;;;6.30;3.17;;;12.40;99.90;;;12.17;96.64;101621.84;4169011;28;20033;-65
2021/08/27 05:47:22;;;;;;;6.15;3.33;;;12.40;99.90;;;12.19;96.64;101631.31;4167863;28;20038;-65
2021/08/27 05:49:23;;;;;;;6.63;3.40;;;12.40;99.90;;;12.17;96.86;101638.56;4168937;28;20047;-65
2021/08/27 05:51:24;;;;;;;7.05;3.60;;;12.40;99.90;;;12.14;97.12;101633.56;4168663;28;20107;-65
2021/08/27 05:53:25;;;;;;;6.63;3.25;;;12.40;99.90;;;12.20;96.83;101648.84;4167574;28;20037;-65
2021/08/27 05:55:26;;;;;;;7.25;3.10;;;12.40;99.90;;;12.29;96.67;101641.00;4168688;28;20083;-65
2021/08/27 05:57:28;;;;;;;8.20;3.33;;;12.50;99.90;;;12.24;96.67;101624.75;4150772;28;20069;-65
2021/08/27 05:59:29;;;;;;;8.25;3.63;;;12.50;99.90;;;12.45;95.82;101646.53;4167526;28;20021;-65
2021/08/27 06:01:31;;;;;;;7.13;3.35;;;12.60;99.90;;;12.45;96.33;101647.38;4167634;28;20053;-65
2021/08/27 06:03:32;;;;;;;9.77;3.45;;;12.60;99.90;;;12.42;96.56;101646.81;4163094;28;20033;-65
2021/08/27 06:05:33;;;;;;;9.48;3.63;;;12.60;99.90;;;12.50;96.62;101644.28;4153417;28;20034;-65
2021/08/27 06:07:34;;;;;;;8.18;3.92;;;12.60;99.90;;;12.48;96.86;101646.25;4153570;28;20104;-65
2021/08/27 06:09:35;;;;;;;7.28;3.22;;;12.70;99.90;;;12.57;96.66;101648.00;4169438;28;20029;-65
2021/08/27 06:11:37;;;;;;;8.40;3.45;;;12.70;99.90;;;12.60;96.30;101634.47;4169821;28;20021;-65
2021/08/27 06:13:38;;;;;;;5.10;3.20;;;12.70;99.90;;;12.59;96.53;101638.94;4169752;28;20026;-65
2021/08/27 06:15:43;;;;;;;9.25;3.95;;;12.70;99.90;;;12.61;96.69;101641.41;4169527;28;20079;-65
2021/08/27 06:17:44;;;;;;;8.93;4.35;;;12.80;99.90;;;12.68;96.31;101650.44;4169664;28;20029;-65
2021/08/27 06:19:45;;;;;;;7.80;3.45;;;12.90;99.90;;;12.73;96.68;101656.97;4201367;28;20021;-65
2021/08/27 06:21:46;;;;;;;6.57;3.25;;;12.90;99.90;;;12.76;96.53;101647.88;4165946;28;20550;-65
2021/08/27 06:23:48;;;;;;;5.20;3.00;;;12.90;99.90;;;12.87;96.05;101653.00;4165957;28;20018;-65
2021/08/27 06:25:49;;;;;;;5.82;3.45;;;13.00;99.90;;;12.96;96.45;101656.56;4152822;28;20466;-65
2021/08/27 06:27:50;;;;;;;7.40;4.50;;;13.10;99.90;;;13.25;94.87;101657.22;4152405;28;20058;-65
2021/08/27 06:29:52;;;;;;;9.43;3.45;;;13.20;99.90;;;13.24;94.95;101656.38;4152374;28;20041;-65
2021/08/27 06:31:53;;;;;;;8.02;3.88;;;13.30;99.90;;;13.22;95.29;101662.84;4159257;28;20031;-65
2021/08/27 06:33:54;;;;;;;6.25;3.78;;;13.40;99.90;;;13.18;95.81;101670.25;4168645;28;20053;-65
2021/08/27 06:35:55;;;;;;;7.63;4.22;;;13.40;99.90;;;13.35;94.85;101671.22;4169069;28;20373;-65
2021/08/27 06:40:17;;;;;;;7.65;4.03;;;13.50;99.90;;;13.54;94.82;101672.88;4169156;28;20036;-65
2021/08/27 06:42:18;;;;;;;5.70;3.00;;;13.60;99.90;;;13.61;94.28;101674.78;4168772;28;20029;-65
2021/08/27 06:44:20;;;;;;;6.78;3.28;;;13.70;99.90;;;13.54;94.83;101667.59;4169191;28;20029;-65
2021/08/27 06:46:25;;;;;;;7.88;3.92;;;13.70;99.90;;;13.64;94.09;101673.66;4168911;28;20511;-65
2021/08/27 06:48:26;;;;;;;6.43;3.53;;;13.80;99.90;;;13.59;94.91;101676.75;4167825;28;20048;-65
2021/08/27 06:50:27;;;;;;;7.72;4.15;;;13.80;99.90;;;13.73;94.80;101678.03;4168868;28;20076;-65
2021/08/27 06:52:29;;;;;;;9.93;3.17;;;13.90;99.90;;;13.75;95.04;101678.69;4168794;28;20029;-65
2021/08/27 06:54:30;;;;;;;8.07;4.07;;;14.00;99.90;;;13.61;95.85;101660.69;4168748;28;20025;-65
2021/08/27 06:56:32;;;;;;;9.98;3.67;;;13.90;99.90;;;13.84;94.98;101675.97;4168906;28;20026;-65
2021/08/27 06:58:33;;;;;;;6.05;3.88;;;14.00;99.90;;;13.79;95.49;101674.78;4169003;28;20045;-65
2021/08/27 07:00:34;;;;;;;10.15;3.53;;;14.00;99.90;;;13.89;94.60;101678.13;4169402;28;20032;-65
2021/08/27 07:02:35;;;;;;;9.77;4.07;;;14.10;99.90;;;13.97;94.62;101680.88;4169198;28;20061;-65
2021/08/27 07:04:36;;;;;;;7.78;3.85;;;14.20;99.90;;;14.03;95.10;101682.06;4169020;28;20393;-65
2021/08/27 07:06:37;;;;;;;7.57;3.28;;;14.20;99.90;;;14.12;94.80;101683.78;4169386;28;20044;-65
2021/08/27 07:08:39;;;;;;;6.07;3.42;;;14.30;99.90;;;14.13;94.20;101686.28;4169255;28;20061;-65
2021/08/27 07:10:40;;;;;;;5.75;3.75;;;14.40;99.90;;;14.19;94.52;101677.69;4169080;28;20116;-65
2021/08/27 07:12:42;;;;;;;7.57;3.65;;;14.40;99.90;;;14.26;95.25;101684.03;4168961;28;20029;-65
2021/08/27 07:14:44;;;;;;;6.30;3.50;;;14.50;99.90;;;14.19;95.19;101685.66;4184407;28;20025;-65
2021/08/27 07:16:45;;;;;;;8.57;4.43;;;14.50;99.90;;;14.23;94.59;101692.31;4169435;28;20021;-65
2021/08/27 07:18:46;;;;;;;9.10;3.65;;;14.60;99.90;;;14.21;94.86;101682.84;4169237;28;20021;-65
2021/08/27 07:20:47;;;;;;;8.23;3.55;;;14.60;99.90;;;14.37;94.20;101682.97;4169236;28;20021;-65
2021/08/27 07:22:49;;;;;;;11.43;3.97;;;14.70;99.90;;;14.38;94.38;101685.47;4169223;28;20021;-65
2021/08/27 07:24:50;;;;;;;10.98;4.18;;;14.80;99.90;;;14.37;93.53;101688.28;4169156;28;20021;-65
2021/08/27 07:26:51;;;;;;;10.15;3.35;;;14.70;99.90;;;14.50;93.04;101677.22;4169323;28;20033;-65
2021/08/27 07:28:52;;;;;;;8.82;4.00;;;14.80;99.90;;;14.56;92.06;101676.59;4169050;28;20025;-65
2021/08/27 07:30:53;;;;;;;8.88;4.00;;;14.90;99.90;;;14.54;91.64;101683.91;4168954;28;20036;-65
2021/08/27 07:32:54;;;;;;;8.40;3.83;;;15.00;99.90;;;14.44;90.50;101665.44;4168987;28;20030;-64
2021/08/27 07:34:55;;;;;;;8.40;3.67;;;15.00;99.90;;;14.56;90.40;101684.56;4201061;28;20032;-65
2021/08/27 07:36:56;;;;;;;7.78;3.50;;;15.10;99.90;;;14.68;90.33;101686.78;4171608;28;20030;-65
2021/08/27 07:38:57;;;;;;;10.40;4.28;;;15.20;99.90;;;14.82;89.54;101680.00;4172278;28;20049;-65
2021/08/27 07:40:58;;;;;;;8.35;3.40;;;15.20;99.90;;;14.83;89.79;101681.69;4171882;28;20029;-65
2021/08/27 07:43:01;;;;;;;11.60;4.28;;;15.30;99.90;;;14.80;89.34;101664.25;4203402;28;20024;-65
2021/08/27 07:45:03;;;;;;;9.93;3.60;;;15.30;99.90;;;14.98;88.25;101680.09;4170573;28;20021;-65
2021/08/27 07:47:05;;;;;;;6.57;3.53;;;15.40;99.90;;;15.00;87.81;101664.81;4203544;28;20071;-67
2021/08/27 07:49:06;;;;;;;7.97;3.03;;;15.40;99.90;;;15.03;86.84;101682.25;4171899;28;20484;-66
2021/08/27 07:51:07;;;;;;;6.45;2.88;;;15.50;99.90;;;14.98;86.83;101674.78;4203442;28;20029;-65
2021/08/27 07:53:08;;;;;;;5.30;2.97;;;15.60;99.90;;;15.11;87.26;101677.81;4171347;28;20071;-65
2021/08/27 07:55:09;;;;;;;6.43;2.97;;;15.60;99.90;;;15.23;87.10;101681.78;4171863;28;20087;-65
2021/08/27 07:57:10;;;;;;;11.90;3.80;;;15.70;99.90;;;15.24;85.48;101675.50;4171340;28;20084;-65
2021/08/27 07:59:12;;;;;;;8.90;3.42;;;15.80;99.90;;;15.37;86.48;101670.53;4171633;28;20401;-65
2021/08/27 08:01:13;;;;;;;8.35;3.35;;;15.80;99.90;;;15.33;86.25;101669.19;4171479;28;20018;-65
2021/08/27 08:03:14;;;;;;;6.55;2.75;;;15.90;99.90;;;15.55;86.18;101688.19;4203107;28;20480;-65
2021/08/27 08:05:15;;;;;;;10.75;4.32;;;16.00;99.90;;;15.53;84.20;101682.22;4171758;28;20029;-65
2021/08/27 08:07:16;;;;;;;7.15;3.45;;;16.00;99.90;;;15.50;84.97;101678.06;4171642;28;20037;-66
2021/08/27 08:09:17;;;;;;;9.13;3.70;;;16.10;99.90;;;15.67;83.87;101682.38;4171340;28;20116;-65
2021/08/27 08:11:19;;;;;;;10.02;4.05;;;16.10;99.90;;;15.74;82.50;101687.88;4171342;28;20485;-65
2021/08/27 08:13:20;;;;;;;9.43;3.45;;;16.20;99.90;;;15.78;83.66;101686.53;4167630;28;20080;-66
2021/08/27 08:15:23;;;;;;;8.55;3.25;;;16.30;99.90;;;15.78;83.23;101665.25;4154362;28;20436;-65
2021/08/27 08:17:23;;;;;;;7.63;3.13;;;16.30;99.90;;;15.93;82.73;101680.38;4153960;28;20022;-65
2021/08/27 08:19:24;;;;;;;8.00;3.28;;;16.40;99.90;;;16.00;83.18;101678.72;4153832;28;20504;-65
2021/08/27 08:21:25;;;;;;;7.80;2.50;;;16.50;99.90;;;16.09;83.41;101681.34;4153666;28;20030;-65
2021/08/27 08:23:27;;;;;;;8.43;3.50;;;16.60;99.90;;;16.17;83.13;101687.50;4153653;28;20036;-65
2021/08/27 08:25:28;;;;;;;9.25;4.28;;;16.70;99.90;;;16.17;82.40;101682.16;4153618;28;20026;-65
2021/08/27 08:27:33;;;;;;;12.90;3.53;;;16.70;99.90;;;16.10;81.77;101681.16;4153462;28;20087;-65
2021/08/27 08:29:34;;;;;;;8.18;2.70;;;16.80;99.90;;;16.21;82.21;101678.19;4153714;28;20397;-67
2021/08/27 08:31:35;;;;;;;7.97;3.15;;;16.80;99.90;;;16.31;79.85;101683.28;4153550;28;20073;-65
2021/08/27 08:33:37;;;;;;;7.82;3.35;;;16.90;99.90;;;16.38;81.34;101679.78;4153628;28;20014;-65
2021/08/27 08:35:38;;;;;;;7.03;3.33;;;16.90;99.90;;;16.55;81.18;101685.91;4188456;28;20056;-65
2021/08/27 08:37:41;;;;;;;6.20;3.75;;;17.10;99.90;;;16.57;80.41;101690.09;4170111;28;20080;-65